createdAt,value
2019-02-25T00:00:22.071Z,3.42
2019-02-25T00:02:49.206Z,3.67
2019-02-25T00:05:16.172Z,3.45
2019-02-25T00:07:43.195Z,2.87
2019-02-25T00:10:10.115Z,3.17
2019-02-25T00:12:37.182Z,3.45
2019-02-25T00:15:04.285Z,3.85
2019-02-25T00:17:31.419Z,3.35
2019-02-25T00:19:58.368Z,3.30
2019-02-25T00:22:25.372Z,3.65
2019-02-25T00:24:52.548Z,3.90
2019-02-25T00:27:19.469Z,3.50
2019-02-25T00:29:46.452Z,3.75
2019-02-25T00:32:13.413Z,3.42
2019-02-25T00:34:40.439Z,3.58
2019-02-25T00:37:07.594Z,3.52
2019-02-25T00:39:35.552Z,3.95
2019-02-25T00:42:02.613Z,3.77
2019-02-25T00:44:29.631Z,4.08
2019-02-25T00:46:56.647Z,4.80
2019-02-25T00:49:23.608Z,4.30
2019-02-25T00:51:51.718Z,4.10
2019-02-25T00:54:18.800Z,4.20
2019-02-25T00:56:45.738Z,4.15
2019-02-25T00:59:12.811Z,3.60
2019-02-25T01:01:39.909Z,4.58
2019-02-25T01:04:06.859Z,3.58
2019-02-25T01:06:33.980Z,4.35
2019-02-25T01:09:01.116Z,3.85
2019-02-25T01:11:28.160Z,3.72
2019-02-25T01:13:55.157Z,3.30
2019-02-25T01:16:22.272Z,3.15
2019-02-25T01:18:49.306Z,4.25
2019-02-25T01:21:16.350Z,3.70
2019-02-25T01:23:43.361Z,3.62
2019-02-25T01:26:10.568Z,3.50
2019-02-25T01:28:37.565Z,3.40
2019-02-25T01:31:04.517Z,4.05
2019-02-25T01:33:31.426Z,3.85
2019-02-25T01:35:58.501Z,4.53
2019-02-25T01:38:25.480Z,4.03
2019-02-25T01:40:52.555Z,3.45
2019-02-25T01:43:19.600Z,3.70
2019-02-25T01:45:46.568Z,3.98
2019-02-25T01:48:13.476Z,3.70
2019-02-25T01:50:40.517Z,4.10
2019-02-25T01:53:07.639Z,4.12
2019-02-25T01:55:34.587Z,4.78
2019-02-25T01:58:01.535Z,4.17
2019-02-25T02:00:28.415Z,4.30
2019-02-25T02:02:55.467Z,4.12
2019-02-25T02:05:24.449Z,4.70
2019-02-25T02:07:51.289Z,4.60
2019-02-25T02:10:18.367Z,3.85
2019-02-25T02:12:45.283Z,3.60
2019-02-25T02:15:13.020Z,3.75
2019-02-25T02:17:40.073Z,4.20
2019-02-25T02:20:08.037Z,4.42
2019-02-25T02:22:35.072Z,4.37
2019-02-25T02:25:01.994Z,3.67
2019-02-25T02:27:29.110Z,4.10
2019-02-25T02:29:56.197Z,3.90
2019-02-25T02:32:23.152Z,4.40
2019-02-25T02:34:50.189Z,3.70
2019-02-25T02:37:17.090Z,3.85
2019-02-25T02:39:44.095Z,4.37
2019-02-25T02:42:18.675Z,4.55
2019-02-25T02:44:48.342Z,3.75
2019-02-25T02:47:51.721Z,4.58
2019-02-25T02:50:23.237Z,4.25
2019-02-25T02:52:50.209Z,4.42
2019-02-25T02:55:17.216Z,4.70
2019-02-25T02:57:44.246Z,4.42
2019-02-25T03:00:13.640Z,4.47
2019-02-25T03:02:40.667Z,4.55
2019-02-25T03:05:10.242Z,4.17
2019-02-25T03:07:37.211Z,4.97
2019-02-25T03:10:05.515Z,4.80
2019-02-25T03:12:32.466Z,4.05
2019-02-25T03:14:59.390Z,4.05
2019-02-25T03:17:26.460Z,4.83
2019-02-25T03:19:53.522Z,4.65
2019-02-25T03:22:20.561Z,4.17
2019-02-25T03:24:47.645Z,4.05
2019-02-25T03:27:14.570Z,4.60
2019-02-25T03:29:41.667Z,4.33
2019-02-25T03:32:08.713Z,3.83
2019-02-25T03:34:35.792Z,4.42
2019-02-25T03:37:02.911Z,3.70
2019-02-25T03:39:29.916Z,4.37
2019-02-25T03:41:56.902Z,4.55
2019-02-25T03:44:23.949Z,3.87
2019-02-25T03:46:51.010Z,3.45
2019-02-25T03:49:18.266Z,3.52
2019-02-25T03:51:45.259Z,4.00
2019-02-25T03:54:12.278Z,3.50
2019-02-25T03:56:39.317Z,3.40
2019-02-25T03:59:06.301Z,3.70
2019-02-25T04:01:33.366Z,4.08
2019-02-25T04:04:00.383Z,3.75
2019-02-25T04:06:27.445Z,3.75
2019-02-25T04:08:54.561Z,4.28
2019-02-25T04:11:21.932Z,3.83
2019-02-25T04:13:48.975Z,3.65
2019-02-25T04:16:16.192Z,3.77
2019-02-25T04:18:43.297Z,3.20
2019-02-25T04:21:10.285Z,3.72
2019-02-25T04:23:37.289Z,3.50
2019-02-25T04:26:04.506Z,3.62
2019-02-25T04:28:31.534Z,4.10
2019-02-25T04:30:58.479Z,3.90
2019-02-25T04:33:25.523Z,2.80
2019-02-25T04:35:52.622Z,3.58
2019-02-25T04:38:19.625Z,3.62
2019-02-25T04:40:46.714Z,4.15
2019-02-25T04:43:13.713Z,2.75
2019-02-25T04:45:47.028Z,3.40
2019-02-25T04:48:14.066Z,3.20
2019-02-25T04:50:41.007Z,3.15
2019-02-25T04:53:08.089Z,3.35
2019-02-25T04:55:34.999Z,3.60
2019-02-25T04:58:02.062Z,3.15
2019-02-25T05:00:29.064Z,3.47
2019-02-25T05:02:56.002Z,3.77
2019-02-25T05:05:23.063Z,4.20
2019-02-25T05:07:50.065Z,3.62
2019-02-25T05:10:17.194Z,3.72
2019-02-25T05:12:46.167Z,3.10
2019-02-25T05:15:15.000Z,3.80
2019-02-25T05:17:41.899Z,3.85
2019-02-25T05:20:08.891Z,3.95
2019-02-25T05:22:37.531Z,3.08
2019-02-25T05:25:05.814Z,3.10
2019-02-25T05:27:32.814Z,3.30
2019-02-25T05:29:59.935Z,3.05
2019-02-25T05:32:26.925Z,3.77
2019-02-25T05:34:53.936Z,4.25
2019-02-25T05:37:20.878Z,3.20
2019-02-25T05:39:47.915Z,3.50
2019-02-25T05:42:14.953Z,3.27
2019-02-25T05:44:41.988Z,3.20
2019-02-25T05:47:09.008Z,4.20
2019-02-25T05:49:55.538Z,4.17
2019-02-25T05:52:22.461Z,4.72
2019-02-25T05:54:49.436Z,4.80
2019-02-25T05:57:16.400Z,5.35
2019-02-25T05:59:43.424Z,5.60
2019-02-25T06:02:10.471Z,4.28
2019-02-25T06:04:37.589Z,4.87
2019-02-25T06:07:04.604Z,4.40
2019-02-25T06:09:31.685Z,3.70
2019-02-25T06:11:58.723Z,3.80
2019-02-25T06:14:25.744Z,4.25
2019-02-25T06:16:52.770Z,4.53
2019-02-25T06:19:19.817Z,4.97
2019-02-25T06:21:46.856Z,6.12
2019-02-25T06:24:14.004Z,5.30
2019-02-25T06:26:40.997Z,5.10
2019-02-25T06:29:11.136Z,6.17
2019-02-25T06:31:38.052Z,5.00
2019-02-25T06:34:05.096Z,5.50
2019-02-25T06:36:32.194Z,5.10
2019-02-25T06:38:59.170Z,5.10
2019-02-25T06:41:26.177Z,4.53
2019-02-25T06:43:53.634Z,5.00
2019-02-25T06:46:20.624Z,5.25
2019-02-25T06:48:47.574Z,4.47
2019-02-25T06:51:14.752Z,5.25
2019-02-25T06:53:41.713Z,4.67
2019-02-25T06:56:08.809Z,5.33
2019-02-25T06:58:35.845Z,4.78
2019-02-25T07:01:02.825Z,4.50
2019-02-25T07:03:29.763Z,4.33
2019-02-25T07:06:01.505Z,5.65
2019-02-25T07:08:30.755Z,4.95
2019-02-25T07:11:08.577Z,5.20
2019-02-25T07:13:43.667Z,5.50
2019-02-25T07:16:12.473Z,5.40
2019-02-25T07:18:56.194Z,5.70
2019-02-25T07:21:28.093Z,5.08
2019-02-25T07:24:05.594Z,5.45
2019-02-25T07:26:34.623Z,5.67
2019-02-25T07:29:03.746Z,6.28
2019-02-25T07:31:49.773Z,7.72
2019-02-25T07:34:27.568Z,6.62
2019-02-25T07:37:11.872Z,6.28
2019-02-25T07:39:44.347Z,5.58
2019-02-25T07:42:19.338Z,5.12
2019-02-25T07:44:51.263Z,4.90
2019-02-25T07:47:20.254Z,5.15
2019-02-25T07:49:49.068Z,5.08
2019-02-25T07:52:18.065Z,5.00
2019-02-25T07:54:53.180Z,4.80
2019-02-25T07:57:27.781Z,6.33
2019-02-25T07:59:56.570Z,5.25
2019-02-25T08:02:28.080Z,7.15
2019-02-25T08:04:57.077Z,6.28
2019-02-25T08:07:35.143Z,6.83
2019-02-25T08:10:06.528Z,6.25
2019-02-25T08:12:41.412Z,6.80
2019-02-25T08:15:19.386Z,7.37
2019-02-25T08:17:48.402Z,7.65
2019-02-25T08:20:29.361Z,7.83
2019-02-25T08:22:58.427Z,8.50
2019-02-25T08:25:33.211Z,8.10
2019-02-25T08:28:11.041Z,8.33
2019-02-25T08:30:39.947Z,8.20
2019-02-25T08:33:25.605Z,8.03
2019-02-25T08:36:38.252Z,8.33
2019-02-25T08:39:10.065Z,9.10
2019-02-25T08:41:48.313Z,7.78
2019-02-25T08:44:20.444Z,7.50
2019-02-25T08:46:49.324Z,9.35
2019-02-25T08:49:18.341Z,8.90
2019-02-25T08:51:45.375Z,8.85
2019-02-25T08:54:12.557Z,8.53
2019-02-25T08:56:39.585Z,8.38
2019-02-25T08:59:06.549Z,8.73
2019-02-25T09:01:33.638Z,9.45
2019-02-25T09:04:00.545Z,9.15
2019-02-25T09:06:27.671Z,9.23
2019-02-25T09:08:54.779Z,8.75
2019-02-25T09:11:21.861Z,9.25
2019-02-25T09:13:48.925Z,8.33
2019-02-25T09:16:16.027Z,8.50
2019-02-25T09:18:43.236Z,8.85
2019-02-25T09:21:10.287Z,8.25
2019-02-25T09:23:37.342Z,8.48
2019-02-25T09:26:05.449Z,8.60
2019-02-25T09:28:32.480Z,8.80
2019-02-25T09:30:59.432Z,7.65
2019-02-25T09:33:26.531Z,8.95
2019-02-25T09:35:53.623Z,8.45
2019-02-25T09:38:20.613Z,8.28
2019-02-25T09:40:47.566Z,8.40
2019-02-25T09:43:14.666Z,8.13
2019-02-25T09:45:41.652Z,8.05
2019-02-25T09:48:08.698Z,8.10
2019-02-25T09:50:35.953Z,8.28
2019-02-25T09:53:07.190Z,7.37
2019-02-25T09:55:34.130Z,8.50
2019-02-25T09:58:01.296Z,7.95
2019-02-25T10:00:28.497Z,8.33
2019-02-25T10:02:55.421Z,7.90
2019-02-25T10:05:22.393Z,7.77
2019-02-25T10:07:49.409Z,7.27
2019-02-25T10:10:16.418Z,9.50
2019-02-25T10:12:43.484Z,6.83
2019-02-25T10:15:11.723Z,7.20
2019-02-25T10:17:38.865Z,6.60
2019-02-25T10:20:06.592Z,7.27
2019-02-25T10:22:33.634Z,7.10
2019-02-25T10:25:00.706Z,7.03
2019-02-25T10:27:27.721Z,7.17
2019-02-25T10:29:54.747Z,6.70
2019-02-25T10:32:23.244Z,6.40
2019-02-25T10:34:50.614Z,6.40
2019-02-25T10:37:17.616Z,4.73
2019-02-25T10:39:45.408Z,5.13
2019-02-25T10:42:13.618Z,5.43
2019-02-25T10:44:40.635Z,5.70
2019-02-25T10:47:07.974Z,5.87
2019-02-25T10:49:35.108Z,5.43
2019-02-25T10:52:02.277Z,5.10
2019-02-25T10:54:29.421Z,3.97
2019-02-25T10:57:02.613Z,3.80
2019-02-25T10:59:31.819Z,3.50
2019-02-25T11:01:58.555Z,3.20
2019-02-25T11:04:26.268Z,3.47
2019-02-25T11:06:53.388Z,3.23
2019-02-25T11:09:31.298Z,3.30
2019-02-25T11:12:00.149Z,3.00
2019-02-25T11:14:27.198Z,3.33
2019-02-25T11:16:54.201Z,2.93
2019-02-25T11:19:22.373Z,3.20
2019-02-25T11:21:50.118Z,3.30
2019-02-25T11:24:18.681Z,3.23
2019-02-25T11:26:46.035Z,3.17
2019-02-25T11:29:13.865Z,3.20
2019-02-25T11:31:45.135Z,3.00
2019-02-25T11:34:12.196Z,3.67
2019-02-25T11:36:39.235Z,3.00
2019-02-25T11:39:06.933Z,3.10
2019-02-25T11:41:37.101Z,2.70
2019-02-25T11:44:04.105Z,3.20
2019-02-25T11:46:31.138Z,3.10
2019-02-25T11:48:58.231Z,3.20
2019-02-25T11:51:27.198Z,3.17
2019-02-25T11:53:54.429Z,3.60
2019-02-25T11:56:21.426Z,3.10
2019-02-25T11:58:48.412Z,3.90
2019-02-25T12:01:15.456Z,3.23
2019-02-25T12:03:42.489Z,3.20
2019-02-25T12:06:09.488Z,4.10
2019-02-25T12:08:36.559Z,3.60
2019-02-25T12:11:03.617Z,4.40
2019-02-25T12:13:30.963Z,4.60
2019-02-25T12:15:58.164Z,4.23
2019-02-25T12:18:25.667Z,4.33
2019-02-25T12:20:52.754Z,4.30
2019-02-25T12:23:19.730Z,3.80
2019-02-25T12:25:46.816Z,4.03
2019-02-25T12:28:13.790Z,4.10
2019-02-25T12:30:40.727Z,5.40
2019-02-25T12:33:07.838Z,4.27
2019-02-25T12:35:34.958Z,4.10
2019-02-25T12:38:02.118Z,4.20
2019-02-25T12:40:29.163Z,4.43
2019-02-25T12:42:56.190Z,4.77
2019-02-25T12:45:23.323Z,5.00
2019-02-25T12:47:50.295Z,4.00
2019-02-25T12:50:17.802Z,3.83
2019-02-25T12:52:44.896Z,4.03
2019-02-25T12:55:11.964Z,3.70
2019-02-25T12:57:39.078Z,3.80
2019-02-25T13:00:09.297Z,4.70
2019-02-25T13:02:36.305Z,4.00
2019-02-25T13:05:04.480Z,4.63
2019-02-25T13:07:31.792Z,3.70
2019-02-25T13:09:58.810Z,4.17
2019-02-25T13:12:25.970Z,3.33
2019-02-25T13:14:52.954Z,2.97
2019-02-25T13:17:19.955Z,2.90
2019-02-25T13:19:46.897Z,2.70
2019-02-25T13:22:14.205Z,2.80
2019-02-25T13:24:41.297Z,2.97
2019-02-25T13:27:11.110Z,3.10
2019-02-25T13:29:38.059Z,2.87
2019-02-25T13:32:05.475Z,2.73
2019-02-25T13:34:33.056Z,2.50
2019-02-25T13:37:00.047Z,3.23
2019-02-25T13:39:27.062Z,3.13
2019-02-25T13:41:54.138Z,2.67
2019-02-25T13:44:21.200Z,3.30
2019-02-25T13:46:48.273Z,4.20
2019-02-25T13:49:15.366Z,2.90
2019-02-25T13:51:42.385Z,3.53
2019-02-25T13:54:09.519Z,3.50
2019-02-25T13:56:36.528Z,3.73
2019-02-25T13:59:03.655Z,2.93
2019-02-25T14:01:30.963Z,3.53
2019-02-25T14:03:57.985Z,3.20
2019-02-25T14:06:24.977Z,2.87
2019-02-25T14:08:52.055Z,3.77
2019-02-25T14:11:19.141Z,3.70
2019-02-25T14:13:46.107Z,3.40
2019-02-25T14:16:13.135Z,3.40
2019-02-25T14:18:40.129Z,3.20
2019-02-25T14:21:07.126Z,3.40
2019-02-25T14:23:34.164Z,3.60
2019-02-25T14:26:01.356Z,3.13
2019-02-25T14:28:30.059Z,4.17
2019-02-25T14:30:57.225Z,3.50
2019-02-25T14:33:24.224Z,3.60
2019-02-25T14:35:53.104Z,3.57
2019-02-25T14:38:20.401Z,2.93
2019-02-25T14:40:49.285Z,3.13
2019-02-25T14:43:17.715Z,3.30
2019-02-25T14:45:46.645Z,2.87
2019-02-25T14:48:18.154Z,3.40
2019-02-25T14:50:43.190Z,3.17
2019-02-25T14:53:11.402Z,2.20
2019-02-25T14:55:40.703Z,2.80
2019-02-25T14:58:09.815Z,4.00
2019-02-25T15:00:38.191Z,4.17
2019-02-25T15:03:05.462Z,2.70
2019-02-25T15:05:32.503Z,2.77
2019-02-25T15:07:59.890Z,2.43
2019-02-25T15:10:29.367Z,3.40
2019-02-25T15:12:58.777Z,2.63
2019-02-25T15:15:24.656Z,2.70
2019-02-25T15:17:52.731Z,2.90
2019-02-25T15:20:20.851Z,2.57
2019-02-25T15:22:48.990Z,2.40
2019-02-25T15:25:16.342Z,2.60
2019-02-25T15:27:43.531Z,2.70
2019-02-25T15:30:13.474Z,2.13
2019-02-25T15:32:43.127Z,2.90
2019-02-25T15:35:09.914Z,2.90
2019-02-25T15:37:37.054Z,3.33
2019-02-25T15:40:09.834Z,5.40
2019-02-25T15:42:38.404Z,3.47
2019-02-25T15:45:05.917Z,3.37
2019-02-25T15:47:32.904Z,2.37
2019-02-25T15:50:03.698Z,3.10
2019-02-25T15:52:30.854Z,3.33
2019-02-25T15:54:57.698Z,3.30
2019-02-25T15:57:26.374Z,3.47
2019-02-25T15:59:53.693Z,2.60
2019-02-25T16:02:20.720Z,2.63
2019-02-25T16:04:47.745Z,3.80
2019-02-25T16:07:14.831Z,3.40
2019-02-25T16:09:42.026Z,3.83
2019-02-25T16:12:09.661Z,3.73
2019-02-25T16:14:38.814Z,4.17
2019-02-25T16:17:05.733Z,4.20
2019-02-25T16:19:41.557Z,3.70
2019-02-25T16:22:03.944Z,4.27
2019-02-25T16:24:32.153Z,5.00
2019-02-25T16:27:02.598Z,4.50
2019-02-25T16:29:30.157Z,3.90
2019-02-25T16:32:00.110Z,4.63
2019-02-25T16:34:25.984Z,4.60
2019-02-25T16:36:53.778Z,4.47
2019-02-25T16:39:21.914Z,4.53
2019-02-25T16:41:48.941Z,4.10
2019-02-25T16:44:15.929Z,4.93
2019-02-25T16:46:43.704Z,4.83
2019-02-25T16:49:11.798Z,5.80
2019-02-25T16:51:38.817Z,4.80
2019-02-25T16:54:09.226Z,5.27
2019-02-25T16:56:34.744Z,4.97
2019-02-25T16:59:10.383Z,6.23
2019-02-25T17:01:32.185Z,6.17
2019-02-25T17:03:59.821Z,5.60
2019-02-25T17:06:28.101Z,5.03
2019-02-25T17:08:57.700Z,4.37
2019-02-25T17:11:24.668Z,5.40
2019-02-25T17:13:53.084Z,5.17
2019-02-25T17:16:23.523Z,4.67
2019-02-25T17:18:49.527Z,4.90
2019-02-25T17:21:16.544Z,5.57
2019-02-25T17:23:43.530Z,5.00
2019-02-25T17:26:12.560Z,4.40
2019-02-25T17:28:39.684Z,4.20
2019-02-25T17:31:08.888Z,3.90
2019-02-25T17:33:37.490Z,4.60
2019-02-25T17:36:06.236Z,3.67
2019-02-25T17:38:34.572Z,4.37
2019-02-25T17:41:04.022Z,4.07
2019-02-25T17:43:32.045Z,4.20
2019-02-25T17:46:00.596Z,4.57
2019-02-25T17:48:28.824Z,3.63
2019-02-25T17:50:57.337Z,3.80
2019-02-25T17:53:26.227Z,3.30
2019-02-25T17:55:55.304Z,3.50
2019-02-25T17:58:24.037Z,6.60
2019-02-25T18:00:53.617Z,6.20
2019-02-25T18:03:22.091Z,3.80
2019-02-25T18:05:50.530Z,3.77
2019-02-25T18:08:18.086Z,4.93
2019-02-25T18:10:46.027Z,4.43
2019-02-25T18:13:14.989Z,3.60
2019-02-25T18:15:42.790Z,3.40
2019-02-25T18:18:13.446Z,4.47
2019-02-25T18:20:39.590Z,3.17
2019-02-25T18:23:07.255Z,3.43
2019-02-25T18:25:34.359Z,3.20
2019-02-25T18:28:01.684Z,3.30
2019-02-25T18:30:32.312Z,3.53
2019-02-25T18:33:00.996Z,3.30
2019-02-25T18:35:29.014Z,2.47
2019-02-25T18:37:57.993Z,3.07
2019-02-25T18:40:25.652Z,3.00
2019-02-25T18:42:52.770Z,3.80
2019-02-25T18:45:20.815Z,3.27
2019-02-25T18:47:48.605Z,4.00
2019-02-25T18:50:17.648Z,3.60
2019-02-25T18:52:46.317Z,2.50
2019-02-25T18:55:14.038Z,3.07
2019-02-25T18:57:42.178Z,4.40
2019-02-25T19:00:17.469Z,4.50
2019-02-25T19:02:45.247Z,1.50
2019-02-25T19:05:14.125Z,4.33
2019-02-25T19:07:42.846Z,3.93
2019-02-25T19:10:12.560Z,3.75
2019-02-25T19:12:40.746Z,3.27
2019-02-25T19:15:08.559Z,3.20
2019-02-25T19:17:36.171Z,2.43
2019-02-25T19:20:05.029Z,4.73
2019-02-25T19:22:33.860Z,4.95
2019-02-25T19:25:05.476Z,4.40
2019-02-25T19:27:32.118Z,2.87
2019-02-25T19:30:02.359Z,3.20
2019-02-25T19:32:29.014Z,9.77
2019-02-25T19:34:56.688Z,5.30
2019-02-25T19:37:28.934Z,3.13
2019-02-25T19:39:53.904Z,3.00
2019-02-25T19:42:22.431Z,2.95
2019-02-25T19:44:49.729Z,2.83
2019-02-25T19:47:19.320Z,2.27
2019-02-25T19:49:46.522Z,2.90
2019-02-25T19:52:14.435Z,2.20
2019-02-25T19:54:43.360Z,2.12
2019-02-25T19:57:14.023Z,2.05
2019-02-25T19:59:40.761Z,2.10
2019-02-25T20:02:07.958Z,2.50
2019-02-25T20:04:35.903Z,2.40
2019-02-25T20:07:03.977Z,2.20
2019-02-25T20:09:31.322Z,2.00
2019-02-25T20:12:01.295Z,3.33
2019-02-25T20:14:27.306Z,2.30
2019-02-25T20:16:54.521Z,2.62
2019-02-25T20:19:22.069Z,2.70
2019-02-25T20:21:50.868Z,3.67
2019-02-25T20:24:19.084Z,3.40
2019-02-25T20:26:48.727Z,3.00
2019-02-25T20:29:15.806Z,2.62
2019-02-25T20:31:42.815Z,2.70
2019-02-25T20:34:09.849Z,2.87
2019-02-25T20:36:36.984Z,2.95
2019-02-25T20:39:04.661Z,3.42
2019-02-25T20:41:31.715Z,2.70
2019-02-25T20:44:00.516Z,2.90
2019-02-25T20:46:29.176Z,2.25
2019-02-25T20:48:57.765Z,2.35
2019-02-25T20:51:27.102Z,3.10
2019-02-25T20:53:54.953Z,3.37
2019-02-25T20:56:24.436Z,2.70
2019-02-25T20:58:52.715Z,2.62
2019-02-25T21:01:20.946Z,2.83
2019-02-25T21:03:48.639Z,2.95
2019-02-25T21:06:18.963Z,2.95
2019-02-25T21:08:46.671Z,3.33
2019-02-25T21:11:15.621Z,3.20
2019-02-25T21:13:42.720Z,2.87
2019-02-25T21:16:10.455Z,3.40
2019-02-25T21:18:37.709Z,3.45
2019-02-25T21:21:05.572Z,2.42
2019-02-25T21:23:33.528Z,3.27
2019-02-25T21:26:04.882Z,2.77
2019-02-25T21:28:33.749Z,3.17
2019-02-25T21:31:01.033Z,4.30
2019-02-25T21:33:30.289Z,4.20
2019-02-25T21:35:57.045Z,3.40
2019-02-25T21:38:25.969Z,2.90
2019-02-25T21:40:54.812Z,3.22
2019-02-25T21:43:25.725Z,3.22
2019-02-25T21:45:52.238Z,2.85
2019-02-25T21:48:23.024Z,3.67
2019-02-25T21:50:48.982Z,3.80
2019-02-25T21:53:18.412Z,3.17
2019-02-25T21:55:45.439Z,2.40
2019-02-25T21:58:16.247Z,2.75
2019-02-25T22:00:43.447Z,3.02
2019-02-25T22:03:13.220Z,2.80
2019-02-25T22:05:40.621Z,2.33
2019-02-25T22:08:08.859Z,2.90
2019-02-25T22:10:38.814Z,2.55
2019-02-25T22:13:08.657Z,2.75
2019-02-25T22:15:36.240Z,2.70
2019-02-25T22:18:04.413Z,2.20
2019-02-25T22:20:35.612Z,3.00
2019-02-25T22:23:03.142Z,2.80
2019-02-25T22:25:30.309Z,3.30
2019-02-25T22:27:59.007Z,2.90
2019-02-25T22:30:26.312Z,2.95
2019-02-25T22:32:53.447Z,2.70
2019-02-25T22:35:20.700Z,2.22
2019-02-25T22:37:52.115Z,2.45
2019-02-25T22:40:17.548Z,2.75
2019-02-25T22:42:47.133Z,2.47
2019-02-25T22:45:16.461Z,2.40
2019-02-25T22:47:44.131Z,2.67
2019-02-25T22:50:12.942Z,2.70
2019-02-25T22:52:40.214Z,3.17
2019-02-25T22:55:09.809Z,2.50
2019-02-25T22:57:36.944Z,2.20
2019-02-25T23:00:17.071Z,2.30
2019-02-25T23:02:45.277Z,2.02
2019-02-25T23:05:14.505Z,2.42
2019-02-25T23:07:44.193Z,2.10
2019-02-25T23:10:12.870Z,2.10
2019-02-25T23:12:39.800Z,2.15
2019-02-25T23:15:07.244Z,2.65
2019-02-25T23:17:35.687Z,2.27
2019-02-25T23:20:09.467Z,2.60
2019-02-25T23:22:38.394Z,2.27
2019-02-25T23:25:06.008Z,2.42
2019-02-25T23:27:34.487Z,2.90
2019-02-25T23:30:01.815Z,2.60
2019-02-25T23:32:28.935Z,2.35
2019-02-25T23:34:56.022Z,2.52
2019-02-25T23:37:24.154Z,2.90
2019-02-25T23:39:52.622Z,2.95
2019-02-25T23:42:19.996Z,2.33
2019-02-25T23:44:47.111Z,2.12
2019-02-25T23:47:14.130Z,2.55
2019-02-25T23:49:43.406Z,2.58
2019-02-25T23:52:10.172Z,2.12
2019-02-25T23:54:37.215Z,2.40
2019-02-25T23:57:04.312Z,2.52
2019-02-25T23:59:31.465Z,6.83
